• Join FlightAware (Why Join?)
  • Login
  • US Flag 
01:01PM EDT


 

Airport Tracker/Info


-or-


 

Live Flight TrackerFlight Track Log ✈ N30NY ✈ 04-Aug-2013 ✈ KHTO - KBDR

Flight Track Log - Related Links

Times and Time Zones

All times are in EDT time to prevent confusion due to time zone crossing. See the N30NY flight status page for this flight to view local times or setup timezone preferences in your user account.

Time Position Orientation Groundspeed Altitude Reporting Facility
EDT Latitude Longitude Course Direction KTS MPH feet Rate Location/Type
08:58PM 40.9833 -73.2000 287° West 140 161 2,100  Level New York TRACON
08:58PM 40.9667 -73.2500 246° West 141 162 2,000 -60 Descending New York TRACON
09:00PM 40.9667 -73.3167 270° West 142 163 2,000  Level New York TRACON
09:00PM 40.9667 -73.3500 270° West 141 162 2,000  Level New York TRACON
09:01PM 40.9667 -73.4000 270° West 142 163 2,000  Level New York TRACON
09:03PM 41.1635 -73.1262 287° West  Level Estimated
09:03PM 40.9500 -73.4667 252° West 146 168 2,000  Level New York TRACON
09:03PM 40.9500 -73.5167 270° West 149 171 2,000  Level New York TRACON
09:04PM 40.9167 -73.5667 229° Southwest 149 171 2,000  Level New York TRACON
09:05PM 40.9000 -73.6000 237° Southwest 147 169 2,000  Level New York TRACON
09:06PM 40.8833 -73.6500 246° West 157 181 2,000  Level New York TRACON
09:07PM 40.8500 -73.7000 229° Southwest 154 177 2,000  Level New York TRACON
09:08PM 40.8167 -73.7333 217° Southwest 156 180 2,000  Level New York TRACON
09:09PM 40.8000 -73.7833 246° West 154 177 2,000  Level New York TRACON
09:10PM 40.7833 -73.8333 246° West 136 157 2,000  Level New York TRACON
09:11PM 40.7667 -73.8833 246° West 147 169 2,000 -240 Level New York TRACON
09:12PM 40.7667 -73.9333 270° West 130 150 1,600 -120 Descending New York TRACON
09:14PM 40.7840 -73.8986 57° Northeast  Level Estimated
09:21PM 40.9009 -73.6627 57° Northeast  Level Estimated
09:22PM 40.9175 -73.6289 57° Northeast  Level Estimated
09:23PM 40.9342 -73.5951 57° Northeast  Level Estimated
09:24PM 40.9508 -73.5613 57° Northeast  Level Estimated
09:24PM 40.8167 -74.0167 21° North 107 123 1,000  Level New York TRACON
09:25PM 40.9675 -73.5275 57° Northeast  Level Estimated
09:25PM 40.8333 -74.0500 303° West 85 98 700  Level New York TRACON
09:26PM 40.9841 -73.4937 57° Northeast  Level Estimated
09:27PM 41.0007 -73.4598 57° Northeast  Level Estimated
09:27PM 40.8535 -73.9943 64° Northeast  Level Estimated
09:28PM 41.0173 -73.4259 57° Northeast  Level Estimated
09:34PM 40.9455 -73.7396 64° Northeast  Level Estimated
09:35PM 40.9585 -73.7031 65° Northeast  Level Estimated
09:36PM 40.9716 -73.6667 65° Northeast  Level Estimated
09:37PM 40.9847 -73.6302 65° Northeast  Level Estimated
09:38PM 40.9977 -73.5937 65° Northeast  Level Estimated
09:39PM 41.0108 -73.5572 65° Northeast  Level Estimated
09:40PM 41.0238 -73.5207 65° Northeast  Level Estimated
09:41PM 41.0368 -73.4841 65° Northeast  Level Estimated
09:42PM 41.0498 -73.4476 65° Northeast  Level Estimated
09:43PM 41.0628 -73.4110 65° Northeast  Level Estimated
09:44PM 41.0758 -73.3745 65° Northeast  Level Estimated
09:45PM 41.0888 -73.3379 65° Northeast  Level Estimated
09:46PM 41.1017 -73.3012 65° Northeast  Level Estimated
09:47PM 41.1147 -73.2646 65° Northeast  Level Estimated
09:48PM 41.1276 -73.2280 65° Northeast  Level Estimated
09:49PM 41.1405 -73.1913 65° Northeast  Level Estimated